Weather at Kluang Airport

Public forecast

Using degrees Celsius for public forecast. Weather courtesy of forecast.io.

Closest aviation weather report (METAR) to Kluang Airport

Closest report is Senai International Airport, 32.4 nm (60.1 km) SE.

2024/05/29 22:00 (retrieved 20 minutes ago)

WMKJ 292200Z 00000KT 7000 FEW008 26/25 Q1008

Aviation forecast (TAF) for Kluang Airport

2024/05/29 18:00 (retrieved 4 hours ago)

TAF WMAP 291700Z 2918/3018 VRB02KT 9000 FEW010 TEMPO 2922/3002 5000 TSRA FEW016CB SCT027